Time;durP1;ratioP1;P1;durP2;ratioP2;P2;SDS_P1;SDS_P2;PMS_P1;PMS_P2;Temp;Humidity;BMP_temperature;BMP_pressure;BME280_temperature;BME280_humidity;BME280_pressure;Samples;Min_cycle;Max_cycle;Signal;HPM_P1;HPM_P2
2022/01/13 00:02:16;;;;;;;;;;;5.50;99.90;;;;;;5113805;28;20319;-56
2022/01/13 00:04:41;;;;;;;;;;;5.50;99.90;;;;;;5114761;28;19959;-56
2022/01/13 00:07:07;;;;;;;;;;;5.50;99.90;;;;;;5115987;28;20119;-55
2022/01/13 00:09:32;;;;;;;;;;;5.50;99.90;;;;;;5114818;28;19994;-57
2022/01/13 00:11:58;;;;;;;;;;;5.50;99.90;;;;;;5115359;28;19912;-55
2022/01/13 00:14:38;;;;;;;;;;;5.50;99.90;;;;;;5113502;28;19912;-57
2022/01/13 00:17:13;;;;;;;;;;;5.50;99.90;;;;;;5112763;28;19992;-57
2022/01/13 00:24:56;;;;;;;;;;;5.40;99.90;;;;;;5114160;28;19923;-54
2022/01/13 00:27:24;;;;;;;;;;;5.50;99.90;;;;;;5114541;28;19912;-56
2022/01/13 00:29:49;;;;;;;;;;;5.40;99.90;;;;;;5116443;28;19912;-55
2022/01/13 00:32:23;;;;;;;;;;;5.50;99.90;;;;;;5116855;28;20284;-53
2022/01/13 00:34:49;;;;;;;;;;;5.50;99.90;;;;;;5114377;28;20001;-55
2022/01/13 00:37:14;;;;;;;;;;;5.40;99.90;;;;;;5114618;28;20248;-54
2022/01/13 00:39:39;;;;;;;;;;;5.40;99.90;;;;;;5115776;28;20143;-55
2022/01/13 00:42:05;;;;;;;;;;;5.50;99.90;;;;;;5113779;28;20278;-54
2022/01/13 00:44:36;;;;;;;;;;;5.50;99.90;;;;;;5113216;28;20186;-55
2022/01/13 00:47:01;;;;;;;;;;;5.50;99.90;;;;;;5112473;28;19931;-51
2022/01/13 00:49:27;;;;;;;;;;;5.50;99.90;;;;;;5111582;28;20210;-54
2022/01/13 00:51:53;;;;;;;;;;;5.50;99.90;;;;;;5113226;28;20353;-56
2022/01/13 00:54:19;;;;;;;;;;;5.50;99.90;;;;;;5115781;28;19911;-54
2022/01/13 00:56:44;;;;;;;;;;;5.50;99.90;;;;;;5114616;27;19958;-56
2022/01/13 00:59:11;;;;;;;;;;;5.50;99.90;;;;;;5114359;28;20191;-57
2022/01/13 01:01:38;;;;;;;;;;;5.60;99.90;;;;;;5115680;28;19916;-54
2022/01/13 01:04:04;;;;;;;;;;;5.50;99.90;;;;;;5115742;28;19989;-57
2022/01/13 01:06:29;;;;;;;;;;;5.50;99.90;;;;;;5115978;28;19954;-55
2022/01/13 01:08:55;;;;;;;;;;;5.50;99.90;;;;;;5115747;28;19943;-57
2022/01/13 01:11:21;;;;;;;;;;;5.50;99.90;;;;;;5114788;28;20226;-55
2022/01/13 01:13:49;;;;;;;;;;;5.50;99.90;;;;;;5114610;28;20261;-53
2022/01/13 01:16:17;;;;;;;;;;;5.50;99.90;;;;;;5114178;27;20003;-55
2022/01/13 01:19:03;;;;;;;;;;;5.50;99.90;;;;;;5132843;27;20001;-56
2022/01/13 01:24:14;;;;;;;;;;;5.50;99.90;;;;;;5134448;27;19934;-56
2022/01/13 01:29:19;;;;;;;;;;;5.60;99.90;;;;;;5132306;27;20009;-53
2022/01/13 01:31:52;;;;;;;;;;;5.50;99.90;;;;;;5132005;27;19907;-54
2022/01/13 01:34:33;;;;;;;;;;;5.50;99.90;;;;;;5132508;27;20010;-52
2022/01/13 01:36:59;;;;;;;;;;;5.60;99.90;;;;;;5131877;27;20038;-55
2022/01/13 01:39:25;;;;;;;;;;;5.60;99.90;;;;;;5133780;27;20297;-53
2022/01/13 01:41:51;;;;;;;;;;;5.40;99.90;;;;;;5134272;27;20229;-55
2022/01/13 01:44:18;;;;;;;;;;;5.50;99.90;;;;;;5132885;28;19954;-53
2022/01/13 01:46:46;;;;;;;;;;;5.60;99.90;;;;;;5133121;27;19918;-54
2022/01/13 01:49:17;;;;;;;;;;;5.50;99.90;;;;;;5134107;27;19915;-53
2022/01/13 01:51:43;;;;;;;;;;;5.60;99.90;;;;;;5134059;27;19908;-57
2022/01/13 01:54:09;;;;;;;;;;;5.60;99.90;;;;;;5132562;28;20272;-56
2022/01/13 01:56:35;;;;;;;;;;;5.60;99.90;;;;;;5131829;28;19918;-56
2022/01/13 01:59:03;;;;;;;;;;;5.60;99.90;;;;;;5170352;27;19978;-54
2022/01/13 02:01:29;;;;;;;;;;;5.50;99.90;;;;;;5155896;27;20171;-55
2022/01/13 02:03:54;;;;;;;;;;;5.50;99.90;;;;;;5175312;27;20081;-57
2022/01/13 02:06:20;;;;;;;;;;;5.50;99.90;;;;;;5175438;27;20198;-57
2022/01/13 02:08:46;;;;;;;;;;;5.50;99.90;;;;;;5157260;27;19918;-54
2022/01/13 02:11:11;;;;;;;;;;;5.50;99.90;;;;;;5155567;27;19911;-55
2022/01/13 02:13:44;;;;;;;;;;;5.50;99.90;;;;;;5156623;27;20251;-56
2022/01/13 02:16:25;;;;;;;;;;;5.50;99.90;;;;;;5156439;27;20112;-57
2022/01/13 02:18:51;;;;;;;;;;;5.50;99.90;;;;;;5156754;27;20181;-57
2022/01/13 02:21:19;;;;;;;;;;;5.50;99.90;;;;;;5156993;27;20198;-57
2022/01/13 02:23:44;;;;;;;;;;;5.50;99.90;;;;;;5157216;27;20236;-57
2022/01/13 02:26:10;;;;;;;;;;;5.60;99.90;;;;;;5156672;27;20396;-58
2022/01/13 02:28:36;;;;;;;;;;;5.60;99.90;;;;;;5156639;27;20326;-52
2022/01/13 02:31:02;;;;;;;;;;;5.60;99.90;;;;;;5156875;27;19911;-56
2022/01/13 02:33:27;;;;;;;;;;;5.60;99.90;;;;;;5158583;27;19917;-56
2022/01/13 02:35:53;;;;;;;;;;;5.50;99.90;;;;;;5157671;27;19911;-56
2022/01/13 02:38:18;;;;;;;;;;;5.50;99.90;;;;;;5157666;27;19938;-54
2022/01/13 02:40:44;;;;;;;;;;;5.40;99.90;;;;;;5175759;27;19922;-57
2022/01/13 02:43:09;;;;;;;;;;;5.50;99.90;;;;;;5174750;27;20002;-58
2022/01/13 02:45:38;;;;;;;;;;;5.40;99.90;;;;;;5155719;27;19967;-55
2022/01/13 02:50:39;;;;;;;;;;;5.50;99.90;;;;;;5175782;27;19913;-58
2022/01/13 02:53:06;;;;;;;;;;;5.60;99.90;;;;;;5158706;27;19907;-57
2022/01/13 02:55:32;;;;;;;;;;;5.60;99.90;;;;;;5157322;27;19915;-58
2022/01/13 02:57:57;;;;;;;;;;;5.50;99.90;;;;;;5155057;27;20199;-57
2022/01/13 03:00:23;;;;;;;;;;;5.50;99.90;;;;;;5158403;27;20310;-53
2022/01/13 03:02:48;;;;;;;;;;;5.60;99.90;;;;;;5159477;27;20002;-53
2022/01/13 03:05:15;;;;;;;;;;;5.60;99.90;;;;;;5159165;27;19918;-54
2022/01/13 03:07:40;;;;;;;;;;;5.60;99.90;;;;;;5158596;27;19907;-55
2022/01/13 03:10:06;;;;;;;;;;;5.60;99.90;;;;;;5157935;27;20169;-55
2022/01/13 03:12:35;;;;;;;;;;;5.60;99.90;;;;;;5157393;27;19911;-55
2022/01/13 03:15:00;;;;;;;;;;;5.70;99.90;;;;;;5156111;27;19927;-57
2022/01/13 03:17:26;;;;;;;;;;;5.70;99.90;;;;;;5156519;27;19942;-58
2022/01/13 03:19:51;;;;;;;;;;;5.70;99.90;;;;;;5158176;27;20000;-57
2022/01/13 03:22:17;;;;;;;;;;;5.70;99.90;;;;;;5155978;27;19919;-57
2022/01/13 03:24:42;;;;;;;;;;;5.70;99.90;;;;;;5157399;27;20320;-52
2022/01/13 03:27:12;;;;;;;;;;;5.70;99.90;;;;;;5158545;27;19911;-58
2022/01/13 03:29:38;;;;;;;;;;;5.70;99.90;;;;;;5159204;27;19990;-57
2022/01/13 03:32:03;;;;;;;;;;;5.70;99.90;;;;;;5157944;27;20055;-57
2022/01/13 03:34:29;;;;;;;;;;;5.70;99.90;;;;;;5158431;27;20006;-58
2022/01/13 03:36:55;;;;;;;;;;;5.70;99.90;;;;;;5159032;27;20221;-58
2022/01/13 03:39:21;;;;;;;;;;;5.80;99.90;;;;;;5158387;27;20315;-58
2022/01/13 03:41:46;;;;;;;;;;;5.80;99.90;;;;;;5157088;27;19942;-57
2022/01/13 03:44:27;;;;;;;;;;;5.80;99.90;;;;;;5158513;27;19911;-57
2022/01/13 03:46:52;;;;;;;;;;;5.80;99.90;;;;;;5157162;27;19955;-56
2022/01/13 03:49:17;;;;;;;;;;;5.90;99.90;;;;;;5157303;27;19915;-55
2022/01/13 03:52:05;;;;;;;;;;;5.90;99.90;;;;;;5154586;27;20196;-53
2022/01/13 03:54:34;;;;;;;;;;;5.80;99.90;;;;;;5154869;27;19911;-55
2022/01/13 03:57:19;;;;;;;;;;;5.90;99.90;;;;;;5158925;27;20068;-53
2022/01/13 04:00:13;;;;;;;;;;;5.90;99.90;;;;;;5159797;27;19907;-58
2022/01/13 04:02:39;;;;;;;;;;;5.80;99.90;;;;;;5159796;27;19907;-55
2022/01/13 04:05:04;;;;;;;;;;;5.90;99.90;;;;;;5161476;27;19907;-55
2022/01/13 04:07:30;;;;;;;;;;;5.80;99.90;;;;;;5160651;27;19912;-55
2022/01/13 04:09:56;;;;;;;;;;;5.80;99.90;;;;;;5161258;27;19922;-55
2022/01/13 04:12:24;;;;;;;;;;;5.80;99.90;;;;;;5160605;27;19942;-56
2022/01/13 04:14:53;;;;;;;;;;;5.80;99.90;;;;;;5161442;27;19921;-56
2022/01/13 04:17:19;;;;;;;;;;;5.80;99.90;;;;;;5158831;27;19906;-56
2022/01/13 04:19:45;;;;;;;;;;;5.90;99.90;;;;;;5158079;27;19991;-57
2022/01/13 04:22:11;;;;;;;;;;;5.90;99.90;;;;;;5157242;27;19914;-57
2022/01/13 04:24:38;;;;;;;;;;;5.80;99.90;;;;;;5158798;27;19907;-57
2022/01/13 04:27:05;;;;;;;;;;;5.90;99.90;;;;;;5159035;27;19911;-57
2022/01/13 04:29:40;;;;;;;;;;;5.90;99.90;;;;;;5176577;27;19906;-58
2022/01/13 04:32:05;;;;;;;;;;;5.90;99.90;;;;;;5158860;27;20228;-56
2022/01/13 04:34:31;;;;;;;;;;;5.90;99.90;;;;;;5159596;27;19971;-58
2022/01/13 04:36:58;;;;;;;;;;;5.80;99.90;;;;;;5159460;27;20054;-53
2022/01/13 04:39:24;;;;;;;;;;;5.80;99.90;;;;;;5159538;27;19907;-56
2022/01/13 04:41:50;;;;;;;;;;;5.90;99.90;;;;;;5156938;27;19911;-53
2022/01/13 04:44:17;;;;;;;;;;;5.90;99.90;;;;;;5156722;27;20073;-57
2022/01/13 04:46:42;;;;;;;;;;;5.90;99.90;;;;;;5156964;27;20169;-55
2022/01/13 04:49:08;;;;;;;;;;;5.90;99.90;;;;;;5175780;27;19986;-54
2022/01/13 04:51:35;;;;;;;;;;;5.90;99.90;;;;;;5157400;27;20258;-58
2022/01/13 04:54:28;;;;;;;;;;;5.90;99.90;;;;;;5158967;27;19960;-54
2022/01/13 04:57:14;;;;;;;;;;;5.90;99.90;;;;;;5157210;27;19911;-56
2022/01/13 04:59:40;;;;;;;;;;;6.00;99.90;;;;;;5175850;27;20224;-55
2022/01/13 05:02:06;;;;;;;;;;;5.90;99.90;;;;;;5175481;27;19911;-56
2022/01/13 05:04:31;;;;;;;;;;;5.90;99.90;;;;;;5155639;27;20271;-56
2022/01/13 05:07:06;;;;;;;;;;;5.90;99.90;;;;;;5156657;27;19917;-58
2022/01/13 05:09:31;;;;;;;;;;;5.90;99.90;;;;;;5157093;27;19998;-58
2022/01/13 05:11:58;;;;;;;;;;;5.90;99.90;;;;;;5158319;27;19955;-58
2022/01/13 05:14:25;;;;;;;;;;;5.90;99.90;;;;;;5158503;27;20346;-57
2022/01/13 05:19:22;;;;;;;;;;;6.00;99.90;;;;;;5178371;27;19921;-55
2022/01/13 05:24:25;;;;;;;;;;;6.00;99.90;;;;;;5176871;27;19998;-58
2022/01/13 05:27:06;;;;;;;;;;;6.00;99.90;;;;;;5157176;27;19911;-57
2022/01/13 05:29:32;;;;;;;;;;;6.00;99.90;;;;;;5157447;27;19957;-58
2022/01/13 05:35:00;;;;;;;;;;;6.00;99.90;;;;;;5179144;27;19925;-56
2022/01/13 05:37:26;;;;;;;;;;;5.90;99.90;;;;;;5141749;27;19915;-58
2022/01/13 05:39:53;;;;;;;;;;;6.00;99.90;;;;;;5137677;27;20002;-56
2022/01/13 05:42:18;;;;;;;;;;;5.90;99.90;;;;;;5136904;27;19966;-53
2022/01/13 05:44:44;;;;;;;;;;;5.90;99.90;;;;;;5155289;27;20385;-57
2022/01/13 05:47:11;;;;;;;;;;;6.00;99.90;;;;;;5137708;27;19911;-58
2022/01/13 05:49:41;;;;;;;;;;;6.00;99.90;;;;;;5154773;27;19918;-57
2022/01/13 05:52:06;;;;;;;;;;;6.00;99.90;;;;;;5136660;27;19986;-58
2022/01/13 05:54:32;;;;;;;;;;;6.10;99.90;;;;;;5154264;27;20017;-55
2022/01/13 05:56:58;;;;;;;;;;;6.00;99.90;;;;;;5129705;27;19967;-55
2022/01/13 05:59:24;;;;;;;;;;;6.00;99.90;;;;;;5108955;28;19912;-57
2022/01/13 06:01:50;;;;;;;;;;;6.10;99.90;;;;;;5106952;28;19915;-58
2022/01/13 06:04:15;;;;;;;;;;;6.10;99.90;;;;;;5108929;28;19908;-55
2022/01/13 06:06:41;;;;;;;;;;;6.10;99.90;;;;;;5122373;28;19907;-56
2022/01/13 06:09:06;;;;;;;;;;;6.10;99.90;;;;;;5129247;28;19962;-57
2022/01/13 06:11:40;;;;;;;;;;;6.10;99.90;;;;;;5130670;28;19915;-57
2022/01/13 06:14:06;;;;;;;;;;;6.10;99.90;;;;;;5132325;28;20188;-54
2022/01/13 06:16:32;;;;;;;;;;;6.10;99.90;;;;;;5129838;28;19999;-55
2022/01/13 06:18:58;;;;;;;;;;;6.10;99.90;;;;;;5127188;28;20056;-54
2022/01/13 06:21:23;;;;;;;;;;;6.10;99.90;;;;;;5127542;28;20016;-52
2022/01/13 06:23:49;;;;;;;;;;;6.10;99.90;;;;;;5129859;28;19923;-53
2022/01/13 06:26:14;;;;;;;;;;;6.20;99.90;;;;;;5130660;28;19919;-54
2022/01/13 06:28:40;;;;;;;;;;;6.20;99.90;;;;;;5128555;28;20048;-53
2022/01/13 06:31:06;;;;;;;;;;;6.20;99.90;;;;;;5129104;28;19907;-57
2022/01/13 06:33:32;;;;;;;;;;;6.20;99.90;;;;;;5129312;27;19918;-58
2022/01/13 06:35:57;;;;;;;;;;;6.20;99.90;;;;;;5125084;27;19912;-56
2022/01/13 06:38:23;;;;;;;;;;;6.20;99.90;;;;;;5112330;28;19975;-58
2022/01/13 06:40:50;;;;;;;;;;;6.20;99.90;;;;;;5112540;28;19912;-56
2022/01/13 06:43:15;;;;;;;;;;;6.30;99.90;;;;;;5113530;28;19912;-58
2022/01/13 06:45:41;;;;;;;;;;;6.30;99.90;;;;;;5112540;28;20173;-56
2022/01/13 06:48:07;;;;;;;;;;;6.30;99.90;;;;;;5114604;28;20003;-58
2022/01/13 06:50:34;;;;;;;;;;;6.30;99.90;;;;;;5120643;27;19907;-58
2022/01/13 06:53:02;;;;;;;;;;;6.30;99.90;;;;;;5138010;27;19923;-58
2022/01/13 06:55:27;;;;;;;;;;;6.30;99.90;;;;;;5138564;27;19915;-57
2022/01/13 06:57:54;;;;;;;;;;;6.30;99.90;;;;;;5137410;27;19919;-56
2022/01/13 07:00:22;;;;;;;;;;;6.30;99.90;;;;;;5138614;27;19908;-57
2022/01/13 07:02:49;;;;;;;;;;;6.30;99.90;;;;;;5136733;27;19979;-56
2022/01/13 07:05:16;;;;;;;;;;;6.30;99.90;;;;;;5132714;27;19915;-57
2022/01/13 07:07:43;;;;;;;;;;;6.40;99.90;;;;;;5117513;28;20061;-56
2022/01/13 07:10:10;;;;;;;;;;;6.40;99.90;;;;;;5116199;28;19908;-56
2022/01/13 07:12:37;;;;;;;;;;;6.40;99.90;;;;;;5125755;27;20026;-56
2022/01/13 07:15:04;;;;;;;;;;;6.40;99.90;;;;;;5137492;27;20528;-54
2022/01/13 07:17:30;;;;;;;;;;;6.40;99.90;;;;;;5135838;27;19958;-56
2022/01/13 07:19:57;;;;;;;;;;;6.40;99.90;;;;;;5133696;27;19947;-57
2022/01/13 07:22:24;;;;;;;;;;;6.40;99.90;;;;;;5132761;27;19916;-58
2022/01/13 07:24:51;;;;;;;;;;;6.40;99.90;;;;;;5115263;27;20495;-57
2022/01/13 07:27:17;;;;;;;;;;;6.40;99.90;;;;;;5125381;27;19915;-58
2022/01/13 07:29:44;;;;;;;;;;;6.40;99.90;;;;;;5133579;27;19915;-57
2022/01/13 07:32:12;;;;;;;;;;;6.40;99.90;;;;;;5116124;27;19911;-55
2022/01/13 07:34:39;;;;;;;;;;;6.50;99.90;;;;;;5099170;28;19923;-58
2022/01/13 07:37:06;;;;;;;;;;;6.50;99.90;;;;;;5117805;27;20003;-57
2022/01/13 07:39:31;;;;;;;;;;;6.50;99.90;;;;;;5112840;28;19923;-57
2022/01/13 07:41:58;;;;;;;;;;;6.50;99.90;;;;;;5113575;28;19961;-57
2022/01/13 07:44:25;;;;;;;;;;;6.50;99.90;;;;;;5114085;28;19973;-58
2022/01/13 07:46:52;;;;;;;;;;;6.50;99.90;;;;;;5115991;27;19916;-57
2022/01/13 07:49:19;;;;;;;;;;;6.50;99.90;;;;;;5126273;27;19954;-58
2022/01/13 07:51:45;;;;;;;;;;;6.50;99.90;;;;;;5124551;27;20553;-58
2022/01/13 07:54:12;;;;;;;;;;;6.50;99.90;;;;;;5114338;28;19980;-58
2022/01/13 07:56:39;;;;;;;;;;;6.50;99.90;;;;;;5115196;27;20010;-57
2022/01/13 07:59:06;;;;;;;;;;;6.50;99.90;;;;;;5126278;27;19930;-57
2022/01/13 08:01:33;;;;;;;;;;;6.50;99.90;;;;;;5119764;27;19922;-55
2022/01/13 08:04:00;;;;;;;;;;;6.50;99.90;;;;;;5130095;27;19982;-55
2022/01/13 08:06:27;;;;;;;;;;;6.50;99.90;;;;;;5123673;27;19907;-55
2022/01/13 08:08:53;;;;;;;;;;;6.50;99.90;;;;;;5113308;28;20239;-55
2022/01/13 08:11:20;;;;;;;;;;;6.50;99.90;;;;;;5113235;27;19973;-56
2022/01/13 08:13:47;;;;;;;;;;;6.50;99.90;;;;;;5111373;28;19969;-57
2022/01/13 08:16:15;;;;;;;;;;;6.40;99.90;;;;;;5111659;28;19930;-58
2022/01/13 08:21:27;;;;;;;;;;;6.40;99.90;;;;;;5133269;27;19918;-58
2022/01/13 08:23:54;;;;;;;;;;;6.50;99.90;;;;;;5132887;27;19946;-59
2022/01/13 08:26:21;;;;;;;;;;;6.50;99.90;;;;;;5124679;27;20393;-59
2022/01/13 08:28:48;;;;;;;;;;;6.40;99.90;;;;;;5111912;27;19911;-57
2022/01/13 08:31:14;;;;;;;;;;;6.40;99.90;;;;;;5120072;27;19926;-57
2022/01/13 08:33:41;;;;;;;;;;;6.40;99.90;;;;;;5114160;27;19934;-59
2022/01/13 08:36:08;;;;;;;;;;;6.40;99.90;;;;;;5117577;27;19940;-55
2022/01/13 08:38:34;;;;;;;;;;;6.40;99.90;;;;;;5113583;28;19912;-58
2022/01/13 08:41:01;;;;;;;;;;;6.40;99.90;;;;;;5123769;27;19912;-58
2022/01/13 08:43:27;;;;;;;;;;;6.40;99.90;;;;;;5115980;27;20018;-58
2022/01/13 08:45:53;;;;;;;;;;;6.40;99.90;;;;;;5127389;27;19961;-54
2022/01/13 08:48:19;;;;;;;;;;;6.40;99.90;;;;;;5130009;27;19940;-55
2022/01/13 08:50:45;;;;;;;;;;;6.30;99.90;;;;;;5129652;27;19911;-57
2022/01/13 08:53:16;;;;;;;;;;;6.30;99.90;;;;;;5127050;27;19908;-57
2022/01/13 08:55:42;;;;;;;;;;;6.30;99.90;;;;;;5127453;27;19937;-58
2022/01/13 08:58:07;;;;;;;;;;;6.30;99.90;;;;;;5127651;27;19992;-59
2022/01/13 09:00:36;;;;;;;;;;;6.30;99.90;;;;;;5128891;27;20002;-59
2022/01/13 09:03:02;;;;;;;;;;;6.30;99.90;;;;;;5128875;27;19911;-56
2022/01/13 09:05:28;;;;;;;;;;;6.30;99.90;;;;;;5124736;27;19994;-57
2022/01/13 09:07:54;;;;;;;;;;;6.30;99.90;;;;;;5108524;28;20034;-59
2022/01/13 09:10:19;;;;;;;;;;;6.30;99.90;;;;;;5109948;28;19974;-56
2022/01/13 09:12:45;;;;;;;;;;;6.20;99.90;;;;;;5107531;28;19977;-58
2022/01/13 09:15:19;;;;;;;;;;;6.20;99.90;;;;;;5108591;28;19922;-55
2022/01/13 09:17:51;;;;;;;;;;;6.20;99.90;;;;;;5110500;28;19908;-59
2022/01/13 09:20:17;;;;;;;;;;;6.20;99.90;;;;;;5111714;28;19912;-57
2022/01/13 09:22:44;;;;;;;;;;;6.20;99.90;;;;;;5113328;28;19998;-57
2022/01/13 09:25:11;;;;;;;;;;;6.20;99.90;;;;;;5115462;28;20002;-58
2022/01/13 09:27:40;;;;;;;;;;;6.30;99.90;;;;;;5114646;28;19916;-55
2022/01/13 09:30:08;;;;;;;;;;;6.20;99.90;;;;;;5113346;28;19912;-59
2022/01/13 09:32:35;;;;;;;;;;;6.20;99.90;;;;;;5114835;28;19916;-58
2022/01/13 09:35:03;;;;;;;;;;;6.20;99.90;;;;;;5118324;27;19945;-58
2022/01/13 09:37:30;;;;;;;;;;;6.20;99.90;;;;;;5114209;28;19919;-56
2022/01/13 09:39:56;;;;;;;;;;;6.20;99.90;;;;;;5114203;28;19961;-56
2022/01/13 09:42:25;;;;;;;;;;;6.20;99.90;;;;;;5114128;28;19911;-57
2022/01/13 09:44:51;;;;;;;;;;;6.20;99.90;;;;;;5113557;28;19912;-57
2022/01/13 09:47:17;;;;;;;;;;;6.20;99.90;;;;;;5112011;28;20211;-56
2022/01/13 09:49:44;;;;;;;;;;;6.20;99.90;;;;;;5112768;28;19919;-60
2022/01/13 09:52:12;;;;;;;;;;;6.30;99.90;;;;;;5110258;28;19907;-61
2022/01/13 09:54:39;;;;;;;;;;;6.50;99.90;;;;;;5112168;28;19912;-56
2022/01/13 09:57:04;;;;;;;;;;;6.40;99.90;;;;;;5110947;27;19938;-57
2022/01/13 09:59:31;;;;;;;;;;;6.40;99.90;;;;;;5111758;28;19912;-57
2022/01/13 10:01:56;;;;;;;;;;;6.30;99.90;;;;;;5112688;28;19923;-59
2022/01/13 10:04:22;;;;;;;;;;;6.30;99.90;;;;;;5111727;28;19908;-56
2022/01/13 10:06:48;;;;;;;;;;;6.30;99.90;;;;;;5112847;28;20436;-56
2022/01/13 10:09:16;;;;;;;;;;;6.30;99.90;;;;;;5098325;28;20225;-59
2022/01/13 10:11:55;;;;;;;;;;;6.30;99.90;;;;;;5117740;27;20381;-57
2022/01/13 10:17:03;;;;;;;;;;;6.30;99.90;;;;;;5119174;27;19907;-57
2022/01/13 10:19:34;;;;;;;;;;;6.30;99.90;;;;;;5115923;28;19908;-58
2022/01/13 10:22:19;;;;;;;;;;;6.20;99.90;;;;;;5126607;27;19969;-56
2022/01/13 10:24:46;;;;;;;;;;;6.20;99.90;;;;;;5123729;27;20203;-56
2022/01/13 10:27:18;;;;;;;;;;;6.30;99.90;;;;;;5117494;27;19916;-55
2022/01/13 10:29:51;;;;;;;;;;;6.30;99.90;;;;;;5132077;27;20009;-57
2022/01/13 10:32:28;;;;;;;;;;;6.30;99.90;;;;;;5136885;27;19911;-59
2022/01/13 10:34:58;;;;;;;;;;;6.30;99.90;;;;;;5135684;27;20164;-58
2022/01/13 10:37:33;;;;;;;;;;;6.30;99.90;;;;;;5134777;27;19964;-55
2022/01/13 10:40:17;;;;;;;;;;;6.30;99.90;;;;;;5127060;27;20219;-59
2022/01/13 10:45:26;;;;;;;;;;;6.30;99.90;;;;;;5116085;27;19922;-58
2022/01/13 10:48:12;;;;;;;;;;;6.30;99.90;;;;;;5114713;27;19916;-58
2022/01/13 10:50:42;;;;;;;;;;;6.30;99.90;;;;;;5123241;27;19922;-58
2022/01/13 10:53:09;;;;;;;;;;;6.30;99.90;;;;;;5116493;27;20193;-58
2022/01/13 10:55:38;;;;;;;;;;;6.30;99.90;;;;;;5130827;27;20325;-58
2022/01/13 10:58:04;;;;;;;;;;;6.30;99.90;;;;;;5133288;27;19919;-57
2022/01/13 11:00:32;;;;;;;;;;;6.30;99.90;;;;;;5126641;27;19923;-55
2022/01/13 11:03:18;;;;;;;;;;;6.30;99.90;;;;;;5134631;27;19907;-56
2022/01/13 11:05:55;;;;;;;;;;;6.30;99.90;;;;;;5135897;27;19924;-58
2022/01/13 11:08:32;;;;;;;;;;;6.20;99.90;;;;;;5132199;27;19911;-58
2022/01/13 11:11:00;;;;;;;;;;;6.30;99.90;;;;;;5118578;27;19914;-58
2022/01/13 11:13:28;;;;;;;;;;;6.30;99.90;;;;;;5122946;27;19912;-58
2022/01/13 11:15:56;;;;;;;;;;;6.20;99.90;;;;;;5115922;27;20421;-55
2022/01/13 11:18:26;;;;;;;;;;;6.30;99.90;;;;;;5127750;27;19938;-58
2022/01/13 11:20:54;;;;;;;;;;;6.30;99.90;;;;;;5138562;27;19934;-58
2022/01/13 11:23:21;;;;;;;;;;;6.30;99.90;;;;;;5137102;27;19938;-57
2022/01/13 11:25:50;;;;;;;;;;;6.30;99.90;;;;;;5122519;27;19918;-56
2022/01/13 11:28:17;;;;;;;;;;;6.30;99.90;;;;;;5122503;27;19922;-52
2022/01/13 11:30:46;;;;;;;;;;;6.20;99.90;;;;;;5137061;27;19908;-54
2022/01/13 11:33:12;;;;;;;;;;;6.20;99.90;;;;;;5105565;28;19916;-57
2022/01/13 11:35:45;;;;;;;;;;;6.20;99.90;;;;;;5132663;27;19930;-56
2022/01/13 11:38:14;;;;;;;;;;;6.30;99.90;;;;;;5118666;27;20549;-55
2022/01/13 11:41:06;;;;;;;;;;;6.30;99.90;;;;;;5128261;27;19961;-55
2022/01/13 11:43:42;;;;;;;;;;;6.30;99.90;;;;;;5132021;27;19922;-57
2022/01/13 11:46:15;;;;;;;;;;;6.20;99.90;;;;;;5134570;27;20414;-58
2022/01/13 11:48:59;;;;;;;;;;;6.30;99.90;;;;;;5128338;27;19907;-54
2022/01/13 11:51:28;;;;;;;;;;;6.20;99.90;;;;;;5123401;27;19911;-57
2022/01/13 11:54:02;;;;;;;;;;;6.30;99.90;;;;;;5118060;27;20402;-55
2022/01/13 11:56:28;;;;;;;;;;;6.30;99.90;;;;;;5129829;27;20072;-58
2022/01/13 11:58:55;;;;;;;;;;;6.30;99.90;;;;;;5136172;27;19927;-54
2022/01/13 12:01:22;;;;;;;;;;;6.30;99.90;;;;;;5135438;27;20005;-58
2022/01/13 12:03:53;;;;;;;;;;;6.30;99.90;;;;;;5117886;27;19935;-56
2022/01/13 12:06:46;;;;;;;;;;;6.30;99.90;;;;;;5116523;28;20318;-54
2022/01/13 12:09:21;;;;;;;;;;;6.30;99.90;;;;;;5114320;28;20008;-54
2022/01/13 12:11:51;;;;;;;;;;;6.30;99.90;;;;;;5116930;28;20006;-54
2022/01/13 12:14:46;;;;;;;;;;;6.40;99.90;;;;;;5115916;28;19908;-57
2022/01/13 12:17:22;;;;;;;;;;;6.40;99.90;;;;;;5115309;27;20006;-57
2022/01/13 12:19:51;;;;;;;;;;;6.40;99.90;;;;;;5135090;27;19955;-57
2022/01/13 12:22:33;;;;;;;;;;;6.40;99.90;;;;;;5137195;27;19908;-57
2022/01/13 12:25:00;;;;;;;;;;;6.40;99.90;;;;;;5137558;27;20010;-56
2022/01/13 12:27:27;;;;;;;;;;;6.40;99.90;;;;;;5137687;27;19907;-56
2022/01/13 12:30:12;;;;;;;;;;;6.40;99.90;;;;;;5136294;27;19907;-57
2022/01/13 12:32:37;;;;;;;;;;;6.40;99.90;;;;;;5135632;27;19915;-58
2022/01/13 12:35:04;;;;;;;;;;;6.50;99.90;;;;;;5134164;27;19912;-55
2022/01/13 12:37:30;;;;;;;;;;;6.50;99.90;;;;;;5132809;27;19907;-56
2022/01/13 12:39:58;;;;;;;;;;;6.40;99.90;;;;;;5132207;27;20002;-56
2022/01/13 12:42:26;;;;;;;;;;;6.50;99.90;;;;;;5133693;27;19908;-56
2022/01/13 12:47:39;;;;;;;;;;;6.40;99.90;;;;;;5133126;27;19913;-57
2022/01/13 12:50:31;;;;;;;;;;;6.60;99.90;;;;;;5132935;27;19989;-55
2022/01/13 12:53:04;;;;;;;;;;;6.70;99.90;;;;;;5131884;27;19943;-57
2022/01/13 12:55:30;;;;;;;;;;;6.70;99.90;;;;;;5134871;27;19919;-56
2022/01/13 12:57:55;;;;;;;;;;;6.70;99.90;;;;;;5134882;27;20026;-53
2022/01/13 13:00:22;;;;;;;;;;;6.80;99.90;;;;;;5133158;27;19990;-56
2022/01/13 13:02:52;;;;;;;;;;;6.80;99.90;;;;;;5131137;27;19918;-52
2022/01/13 13:05:31;;;;;;;;;;;6.70;99.90;;;;;;5130807;27;19934;-50
2022/01/13 13:07:58;;;;;;;;;;;6.60;99.90;;;;;;5132193;27;19983;-55
2022/01/13 13:10:23;;;;;;;;;;;6.60;99.90;;;;;;5131518;27;19915;-55
2022/01/13 13:12:52;;;;;;;;;;;6.60;99.90;;;;;;5133812;27;19938;-57
2022/01/13 13:17:46;;;;;;;;;;;6.60;99.90;;;;;;5135584;27;19973;-54
2022/01/13 13:20:22;;;;;;;;;;;6.60;99.90;;;;;;5134847;27;19907;-55
2022/01/13 13:22:49;;;;;;;;;;;6.60;99.90;;;;;;5134181;27;20287;-57
2022/01/13 13:25:27;;;;;;;;;;;6.60;99.90;;;;;;5128560;27;19977;-57
2022/01/13 13:27:52;;;;;;;;;;;6.60;99.90;;;;;;5114780;28;19911;-58
2022/01/13 13:30:18;;;;;;;;;;;6.70;99.90;;;;;;5115407;28;20199;-57
2022/01/13 13:32:50;;;;;;;;;;;6.70;99.90;;;;;;5114984;28;19994;-57
2022/01/13 13:35:16;;;;;;;;;;;6.70;99.90;;;;;;5113727;28;19912;-55
2022/01/13 13:37:45;;;;;;;;;;;6.70;99.90;;;;;;5112414;28;19957;-55
2022/01/13 13:40:23;;;;;;;;;;;6.80;99.90;;;;;;5114133;28;19966;-57
2022/01/13 13:43:03;;;;;;;;;;;6.80;99.90;;;;;;5113662;28;19915;-57
2022/01/13 13:45:29;;;;;;;;;;;6.80;99.90;;;;;;5112063;28;19916;-57
2022/01/13 13:47:58;;;;;;;;;;;6.90;99.90;;;;;;5110666;28;19994;-54
2022/01/13 13:50:23;;;;;;;;;;;6.90;99.90;;;;;;5105088;28;19908;-55
2022/01/13 13:53:06;;;;;;;;;;;6.90;99.90;;;;;;5105831;28;20200;-55
2022/01/13 13:55:32;;;;;;;;;;;7.00;99.90;;;;;;5105104;28;20045;-56
2022/01/13 13:57:58;;;;;;;;;;;7.00;99.90;;;;;;5103706;27;19919;-57
2022/01/13 14:00:26;;;;;;;;;;;7.00;99.90;;;;;;5105466;28;19973;-57
2022/01/13 14:02:53;;;;;;;;;;;7.00;99.90;;;;;;5105285;28;19920;-54
2022/01/13 14:05:21;;;;;;;;;;;7.00;99.90;;;;;;5106100;28;19994;-55
2022/01/13 14:07:48;;;;;;;;;;;7.00;99.90;;;;;;5105320;28;19969;-53
2022/01/13 14:10:16;;;;;;;;;;;7.10;99.90;;;;;;5104316;28;19916;-53
2022/01/13 14:12:42;;;;;;;;;;;7.10;99.90;;;;;;5124179;28;19989;-56
2022/01/13 14:15:13;;;;;;;;;;;7.10;99.90;;;;;;5122210;28;19912;-57
2022/01/13 14:17:39;;;;;;;;;;;7.10;99.90;;;;;;5123559;28;19908;-55
2022/01/13 14:20:06;;;;;;;;;;;7.10;99.90;;;;;;5105170;28;19915;-57
2022/01/13 14:22:32;;;;;;;;;;;7.10;99.90;;;;;;5107035;28;19908;-57
2022/01/13 14:24:58;;;;;;;;;;;7.10;99.90;;;;;;5106161;28;19939;-58
2022/01/13 14:27:24;;;;;;;;;;;7.10;99.90;;;;;;5106300;28;19908;-55
2022/01/13 14:29:51;;;;;;;;;;;7.10;99.90;;;;;;5123456;28;19915;-58
2022/01/13 14:32:23;;;;;;;;;;;7.10;99.90;;;;;;5108097;28;19919;-57
2022/01/13 14:34:50;;;;;;;;;;;7.10;99.90;;;;;;5110316;28;20290;-57
2022/01/13 14:37:18;;;;;;;;;;;7.20;99.90;;;;;;5118560;28;20001;-50
2022/01/13 14:40:02;;;;;;;;;;;7.20;99.90;;;;;;5131633;28;20221;-52
2022/01/13 14:42:29;;;;;;;;;;;7.20;99.90;;;;;;5131943;28;19941;-53
2022/01/13 14:45:13;;;;;;;;;;;7.20;99.90;;;;;;5131973;28;19907;-55
2022/01/13 14:47:39;;;;;;;;;;;7.20;99.90;;;;;;5130587;28;20025;-55
2022/01/13 14:50:04;;;;;;;;;;;7.20;99.90;;;;;;5132765;28;20002;-57
2022/01/13 14:52:30;;;;;;;;;;;7.20;99.90;;;;;;5131303;28;19970;-57
2022/01/13 14:54:56;;;;;;;;;;;7.20;99.90;;;;;;5134741;27;20333;-55
2022/01/13 14:57:23;;;;;;;;;;;7.20;99.90;;;;;;5135643;27;20006;-56
2022/01/13 14:59:49;;;;;;;;;;;7.20;99.90;;;;;;5131926;27;20044;-57
2022/01/13 15:02:15;;;;;;;;;;;7.30;99.90;;;;;;5130925;27;20006;-53
2022/01/13 15:04:41;;;;;;;;;;;7.30;99.90;;;;;;5132614;27;19907;-54
2022/01/13 15:07:06;;;;;;;;;;;7.30;99.90;;;;;;5132627;27;19919;-57
2022/01/13 15:09:31;;;;;;;;;;;7.30;99.90;;;;;;5132103;27;20287;-54
2022/01/13 15:11:58;;;;;;;;;;;7.30;99.90;;;;;;5133302;27;19908;-57
2022/01/13 15:14:23;;;;;;;;;;;7.30;99.90;;;;;;5135035;27;19990;-56